Main page
METAR-TAF:

METAR-TAF

Airports :

Farnborough Airport

Farnborough, England

latitude: 51-17N, longitude: 000-46W, elevation: 65 m

Current weather observation

The report was made 24 minutes ago, at 18:20 UTC
Wind 13 kt from the Northeast
Temperature 5°C
Humidity 81%
Pressure 1016 hPa
Visibility 10 km or more
Few clouds at a height of 2500 ft

METAR: EGLF 191820Z 04013KT 9999 FEW025 05/02 Q1016

Time: 18:44 (18:44 UTC)

Forecast

The report was made 1 hour and 45 minutes ago, at 16:59 UTC
Forecast valid from 19 at 18 UTC to 19 at 22 UTC
Wind 12 kt from the East/Northeast
Visibility 10 km or more
Scattered clouds at a height of 3000 ft
Probability 30% :
Temporary
from 19 at 18 UTC to 19 at 22 UTC
Wind 15 kt from the East/Northeast with gusts up to 25 kt
Visibility: 6000 m
Broken clouds at a height of 1400 ft
rain showers

TAF: EGLF 191659Z 1918/1922 07012KT 9999 SCT030 PROB30 TEMPO 1918/1922 07015G25KT 6000 SHRA BKN014

Weather observations and forecasts of more than 4000 airports (METAR and TAF reports).

The available stations are represented by yellow and red dots on the map.

Hover mouse over dot to see the name of the station.

Then click to see weather observations and forecasts.

To change the map : click on the green buttons with a black cross to zoom in, on the green button with a dash to zoom out, or on the green arrows for adjacent maps.


METAR-TAF: